Aviation Digital Data Service (ADDS)

Output produced by TAFs form (2117 UTC 24 May 2015)
found at http://aviationweather.gov/adds/tafs/
 
KMAF 241723Z 2418/2518 24013G20KT P6SM SCT250 
     FM250100 19008KT P6SM SCT250 
     FM250900 17010KT P6SM SCT050 BKN250